createdAt,value
2019-02-17T00:00:40.154Z,56.68
2019-02-17T00:03:08.793Z,59.20
2019-02-17T00:05:37.456Z,59.15
2019-02-17T00:08:06.208Z,59.93
2019-02-17T00:10:34.954Z,60.25
2019-02-17T00:13:03.615Z,58.10
2019-02-17T00:15:32.332Z,58.52
2019-02-17T00:18:00.962Z,60.23
2019-02-17T00:20:29.739Z,59.18
2019-02-17T00:22:58.445Z,59.75
2019-02-17T00:25:27.117Z,60.12
2019-02-17T00:27:55.768Z,60.85
2019-02-17T00:30:24.455Z,59.30
2019-02-17T00:32:53.022Z,59.77
2019-02-17T00:35:21.663Z,59.08
2019-02-17T00:37:50.291Z,58.85
2019-02-17T00:40:18.927Z,61.13
2019-02-17T00:42:47.579Z,60.25
2019-02-17T00:45:16.280Z,60.38
2019-02-17T00:47:44.954Z,56.58
2019-02-17T00:50:13.609Z,58.00
2019-02-17T00:52:42.303Z,55.35
2019-02-17T00:55:10.949Z,59.73
2019-02-17T00:57:39.596Z,56.68
2019-02-17T01:00:12.220Z,59.55
2019-02-17T01:02:40.792Z,56.18
2019-02-17T01:05:09.455Z,57.13
2019-02-17T01:07:38.157Z,56.13
2019-02-17T01:10:08.238Z,50.12
2019-02-17T01:12:36.892Z,50.55
2019-02-17T01:15:11.438Z,53.90
2019-02-17T01:17:40.094Z,47.75
2019-02-17T01:20:09.934Z,51.40
2019-02-17T01:22:38.640Z,47.98
2019-02-17T01:25:10.840Z,47.38
2019-02-17T01:27:39.469Z,49.15
2019-02-17T01:30:11.265Z,49.65
2019-02-17T01:32:39.914Z,49.35
2019-02-17T01:35:08.759Z,49.38
2019-02-17T01:37:37.385Z,49.25
2019-02-17T01:40:08.995Z,50.50
2019-02-17T01:42:37.647Z,50.03
2019-02-17T01:45:08.860Z,49.48
2019-02-17T01:47:37.508Z,48.97
2019-02-17T01:50:08.560Z,46.95
2019-02-17T01:52:37.239Z,49.73
2019-02-17T01:55:07.799Z,47.58
2019-02-17T01:57:36.457Z,47.17
2019-02-17T02:00:11.067Z,48.13
2019-02-17T02:02:39.703Z,47.73
2019-02-17T02:05:08.361Z,46.80
2019-02-17T02:07:37.063Z,46.83
2019-02-17T02:10:08.521Z,46.63
2019-02-17T02:12:37.935Z,45.33
2019-02-17T02:15:11.191Z,42.55
2019-02-17T02:17:40.122Z,44.65
2019-02-17T02:20:13.105Z,43.65
2019-02-17T02:22:41.825Z,44.05
2019-02-17T02:25:10.479Z,44.60
2019-02-17T02:27:39.053Z,43.83
2019-02-17T02:30:10.664Z,44.90
2019-02-17T02:32:39.328Z,43.28
2019-02-17T02:35:07.958Z,43.52
2019-02-17T02:37:36.663Z,43.65
2019-02-17T02:40:06.215Z,44.00
2019-02-17T02:42:34.871Z,42.03
2019-02-17T02:45:03.987Z,42.48
2019-02-17T02:47:32.622Z,40.55
2019-02-17T02:50:01.281Z,41.18
2019-02-17T02:52:29.892Z,42.90
2019-02-17T02:54:58.541Z,40.95
2019-02-17T02:57:27.191Z,40.40
2019-02-17T02:59:55.878Z,40.33
2019-02-17T03:02:24.529Z,40.48
2019-02-17T03:04:53.185Z,39.20
2019-02-17T03:07:21.883Z,39.98
2019-02-17T03:09:50.540Z,41.53
2019-02-17T03:12:19.194Z,39.85
2019-02-17T03:14:48.556Z,40.20
2019-02-17T03:17:17.206Z,39.83
2019-02-17T03:19:45.879Z,40.95
2019-02-17T03:22:14.538Z,41.37
2019-02-17T03:24:43.183Z,38.90
2019-02-17T03:27:11.818Z,38.78
2019-02-17T03:29:40.437Z,39.83
2019-02-17T03:32:09.119Z,36.83
2019-02-17T03:34:37.738Z,39.35
2019-02-17T03:37:06.441Z,38.48
2019-02-17T03:39:35.070Z,38.85
2019-02-17T03:42:03.716Z,39.00
2019-02-17T03:44:32.427Z,38.48
2019-02-17T03:47:01.061Z,40.88
2019-02-17T03:49:29.702Z,39.18
2019-02-17T03:51:58.434Z,37.55
2019-02-17T03:54:27.017Z,39.40
2019-02-17T03:56:55.657Z,38.92
2019-02-17T03:59:24.358Z,40.03
2019-02-17T04:01:52.985Z,39.55
2019-02-17T04:04:21.560Z,39.63
2019-02-17T04:06:50.245Z,40.58
2019-02-17T04:09:18.828Z,40.00
2019-02-17T04:11:47.476Z,41.53
2019-02-17T04:14:16.116Z,40.52
2019-02-17T04:16:45.361Z,39.67
2019-02-17T04:19:13.930Z,39.55
2019-02-17T04:21:42.649Z,38.48
2019-02-17T04:24:11.272Z,38.28
2019-02-17T04:26:39.928Z,38.15
2019-02-17T04:29:10.306Z,37.17
2019-02-17T04:31:38.910Z,37.98
2019-02-17T04:34:07.562Z,37.98
2019-02-17T04:36:36.246Z,38.35
2019-02-17T04:39:05.687Z,38.15
2019-02-17T04:41:34.356Z,39.48
2019-02-17T04:44:02.917Z,40.40
2019-02-17T04:46:31.577Z,38.60
2019-02-17T04:49:00.206Z,40.67
2019-02-17T04:51:28.916Z,37.80
2019-02-17T04:53:57.587Z,39.08
2019-02-17T04:56:26.233Z,37.65
2019-02-17T04:58:54.940Z,40.25
2019-02-17T05:01:23.603Z,39.88
2019-02-17T05:03:52.245Z,38.65
2019-02-17T05:06:20.949Z,40.25
2019-02-17T05:08:49.683Z,42.43
2019-02-17T05:11:18.337Z,39.92
2019-02-17T05:13:47.028Z,39.83
2019-02-17T05:16:15.690Z,41.23
2019-02-17T05:18:44.972Z,38.45
2019-02-17T05:21:13.607Z,40.67
2019-02-17T05:23:42.161Z,41.40
2019-02-17T05:26:10.686Z,40.17
2019-02-17T05:28:39.383Z,39.83
2019-02-17T05:31:08.024Z,39.75
2019-02-17T05:33:36.673Z,39.20
2019-02-17T05:36:05.323Z,38.88
2019-02-17T05:38:33.876Z,39.83
2019-02-17T05:41:02.514Z,38.83
2019-02-17T05:43:31.216Z,39.83
2019-02-17T05:45:59.878Z,39.73
2019-02-17T05:48:29.451Z,38.60
2019-02-17T05:50:58.533Z,41.30
2019-02-17T05:53:27.179Z,39.98
2019-02-17T05:55:55.828Z,39.50
2019-02-17T05:58:24.549Z,41.02
2019-02-17T06:01:03.034Z,38.38
2019-02-17T06:03:23.403Z,38.35
2019-02-17T06:05:52.035Z,38.58
2019-02-17T06:08:20.694Z,36.93
2019-02-17T06:10:49.351Z,37.48
2019-02-17T06:13:18.037Z,35.70
2019-02-17T06:15:46.688Z,34.50
2019-02-17T06:18:15.317Z,37.42
2019-02-17T06:20:44.877Z,36.58
2019-02-17T06:23:13.536Z,35.35
2019-02-17T06:25:42.093Z,35.43
2019-02-17T06:28:10.829Z,34.45
2019-02-17T06:30:39.464Z,35.60
2019-02-17T06:33:08.099Z,33.80
2019-02-17T06:35:36.741Z,33.02
2019-02-17T06:38:05.391Z,33.85
2019-02-17T06:40:34.018Z,34.10
2019-02-17T06:43:02.727Z,32.58
2019-02-17T06:45:31.385Z,30.45
2019-02-17T06:48:00.022Z,32.38
2019-02-17T06:50:28.712Z,32.48
2019-02-17T06:52:57.372Z,31.87
2019-02-17T06:55:27.588Z,31.05
2019-02-17T06:57:56.400Z,31.10
2019-02-17T07:00:32.610Z,31.97
2019-02-17T07:03:01.253Z,31.40
2019-02-17T07:05:31.485Z,31.80
2019-02-17T07:08:00.156Z,32.05
2019-02-17T07:10:28.838Z,31.57
2019-02-17T07:12:57.505Z,32.80
2019-02-17T07:15:26.137Z,31.33
2019-02-17T07:17:54.842Z,32.40
2019-02-17T07:20:23.505Z,32.53
2019-02-17T07:22:52.811Z,31.80
2019-02-17T07:25:29.845Z,32.60
2019-02-17T07:27:51.814Z,30.52
2019-02-17T07:30:20.413Z,32.83
2019-02-17T07:32:49.112Z,33.48
2019-02-17T07:35:17.749Z,34.03
2019-02-17T07:37:46.404Z,33.33
2019-02-17T07:40:15.111Z,33.60
2019-02-17T07:42:43.814Z,33.60
2019-02-17T07:45:12.408Z,33.55
2019-02-17T07:47:41.132Z,34.53
2019-02-17T07:50:10.701Z,34.75
2019-02-17T07:52:39.338Z,36.35
2019-02-17T07:55:10.258Z,33.40
2019-02-17T07:57:38.890Z,33.48
2019-02-17T08:00:10.368Z,35.43
2019-02-17T08:02:39.595Z,37.10
2019-02-17T08:05:09.200Z,37.60
2019-02-17T08:07:37.870Z,36.85
2019-02-17T08:10:09.078Z,37.67
2019-02-17T08:12:37.717Z,38.47
2019-02-17T08:15:08.866Z,36.58
2019-02-17T08:17:37.575Z,37.38
2019-02-17T08:20:09.023Z,38.90
2019-02-17T08:22:37.657Z,38.83
2019-02-17T08:25:08.316Z,39.15
2019-02-17T08:27:36.970Z,38.50
2019-02-17T08:30:13.294Z,39.23
2019-02-17T08:32:43.982Z,37.78
2019-02-17T08:35:12.172Z,36.77
2019-02-17T08:37:40.898Z,37.40
2019-02-17T08:40:10.606Z,37.78
2019-02-17T08:42:39.237Z,37.23
2019-02-17T08:45:09.744Z,36.93
2019-02-17T08:47:38.385Z,37.48
2019-02-17T08:50:10.085Z,37.67
2019-02-17T08:52:38.795Z,36.77
2019-02-17T08:55:09.633Z,36.15
2019-02-17T08:57:38.307Z,36.15
2019-02-17T09:00:12.640Z,35.20
2019-02-17T09:02:41.296Z,36.75
2019-02-17T09:05:09.877Z,36.03
2019-02-17T09:07:38.520Z,35.33
2019-02-17T09:10:10.276Z,35.85
2019-02-17T09:12:38.950Z,35.88
2019-02-17T09:15:12.438Z,34.75
2019-02-17T09:17:41.100Z,35.03
2019-02-17T09:20:11.310Z,34.63
2019-02-17T09:22:39.992Z,35.45
2019-02-17T09:25:10.722Z,35.65
2019-02-17T09:27:39.436Z,36.15
2019-02-17T09:30:11.291Z,37.10
2019-02-17T09:32:39.950Z,37.17
2019-02-17T09:35:08.594Z,37.65
2019-02-17T09:37:37.289Z,38.30
2019-02-17T09:40:09.045Z,37.55
2019-02-17T09:42:37.685Z,38.23
2019-02-17T09:45:11.990Z,36.23
2019-02-17T09:47:40.657Z,35.48
2019-02-17T09:50:13.560Z,35.35
2019-02-17T09:52:42.347Z,35.63
2019-02-17T09:55:11.321Z,35.30
2019-02-17T09:57:39.992Z,34.98
2019-02-17T10:00:13.929Z,33.18
2019-02-17T10:02:42.587Z,33.13
2019-02-17T10:05:12.123Z,32.35
2019-02-17T10:07:40.847Z,31.85
2019-02-17T10:10:14.721Z,26.42
2019-02-17T10:12:43.407Z,25.55
2019-02-17T10:15:13.501Z,26.73
2019-02-17T10:17:42.184Z,26.23
2019-02-17T10:20:12.841Z,28.52
2019-02-17T10:22:41.556Z,28.35
2019-02-17T10:25:10.618Z,28.12
2019-02-17T10:27:39.270Z,29.12
2019-02-17T10:30:14.887Z,29.52
2019-02-17T10:32:43.533Z,31.00
2019-02-17T10:35:12.209Z,30.77
2019-02-17T10:37:40.931Z,28.70
2019-02-17T10:40:17.721Z,28.27
2019-02-17T10:42:46.460Z,26.12
2019-02-17T10:45:15.142Z,24.72
2019-02-17T10:47:43.807Z,24.15
2019-02-17T10:50:13.227Z,22.27
2019-02-17T10:52:41.881Z,23.73
2019-02-17T10:55:12.535Z,23.40
2019-02-17T10:57:41.244Z,23.00
2019-02-17T11:00:13.664Z,21.45
2019-02-17T11:02:47.137Z,21.60
2019-02-17T11:05:12.689Z,19.98
2019-02-17T11:07:41.336Z,18.40
2019-02-17T11:10:11.393Z,17.00
2019-02-17T11:12:40.107Z,16.05
2019-02-17T11:15:19.289Z,15.88
2019-02-17T11:17:48.037Z,16.67
2019-02-17T11:20:16.679Z,17.07
2019-02-17T11:22:45.345Z,12.15
2019-02-17T11:25:14.067Z,10.80
2019-02-17T11:27:42.708Z,11.40
2019-02-17T11:30:17.254Z,11.20
2019-02-17T11:32:45.901Z,10.78
2019-02-17T11:35:14.565Z,10.60
2019-02-17T11:37:45.112Z,10.05
2019-02-17T11:40:13.666Z,9.55
2019-02-17T11:42:42.311Z,9.90
2019-02-17T11:45:13.706Z,9.03
2019-02-17T11:47:42.363Z,9.15
2019-02-17T11:50:11.012Z,11.53
2019-02-17T11:52:39.708Z,12.70
2019-02-17T11:55:13.611Z,13.65
2019-02-17T11:57:42.255Z,15.55
2019-02-17T12:00:22.039Z,14.43
2019-02-17T12:02:50.695Z,13.22
2019-02-17T12:05:19.338Z,13.22
2019-02-17T12:07:48.045Z,12.40
2019-02-17T12:10:16.698Z,13.85
2019-02-17T12:12:45.346Z,10.35
2019-02-17T12:15:14.555Z,8.25
2019-02-17T12:17:43.203Z,8.80
2019-02-17T12:20:34.706Z,9.18
2019-02-17T12:23:07.655Z,8.93
2019-02-17T12:25:37.887Z,10.65
2019-02-17T12:28:08.221Z,9.88
2019-02-17T12:30:37.902Z,10.28
2019-02-17T12:33:06.555Z,10.03
2019-02-17T12:35:35.964Z,10.88
2019-02-17T12:38:04.601Z,14.65
2019-02-17T12:40:33.259Z,14.63
2019-02-17T12:43:01.976Z,16.97
2019-02-17T12:45:30.641Z,21.52
2019-02-17T12:47:59.280Z,19.20
2019-02-17T12:50:27.988Z,18.90
2019-02-17T12:52:56.625Z,17.57
2019-02-17T12:55:25.296Z,18.07
2019-02-17T12:57:54.009Z,20.17
2019-02-17T13:00:22.669Z,18.90
2019-02-17T13:02:51.309Z,23.05
2019-02-17T13:05:20.027Z,25.08
2019-02-17T13:07:48.675Z,27.85
2019-02-17T13:10:17.349Z,31.20
2019-02-17T13:12:46.107Z,33.90
2019-02-17T13:15:15.825Z,34.67
2019-02-17T13:17:44.477Z,37.48
2019-02-17T13:20:14.374Z,39.50
2019-02-17T13:22:43.037Z,34.78
2019-02-17T13:25:16.617Z,34.92
2019-02-17T13:27:45.349Z,38.70
2019-02-17T13:30:22.630Z,36.85
2019-02-17T13:32:51.337Z,37.42
2019-02-17T13:35:19.993Z,39.23
2019-02-17T13:37:49.591Z,37.78
2019-02-17T13:40:18.280Z,34.90
2019-02-17T13:42:47.066Z,37.23
2019-02-17T13:45:17.205Z,40.48
2019-02-17T13:47:45.889Z,40.90
2019-02-17T13:50:17.672Z,39.88
2019-02-17T13:52:46.255Z,42.43
2019-02-17T13:55:15.005Z,39.88
2019-02-17T13:57:43.576Z,39.80
2019-02-17T14:00:19.448Z,43.15
2019-02-17T14:02:48.103Z,42.53
2019-02-17T14:05:16.741Z,44.95
2019-02-17T14:07:45.443Z,44.53
2019-02-17T14:10:14.498Z,43.35
2019-02-17T14:12:43.136Z,43.92
2019-02-17T14:15:19.582Z,43.78
2019-02-17T14:17:48.159Z,44.40
2019-02-17T14:20:16.800Z,43.00
2019-02-17T14:22:45.533Z,42.05
2019-02-17T14:25:14.187Z,44.95
2019-02-17T14:27:42.820Z,43.38
2019-02-17T14:30:13.577Z,44.60
2019-02-17T14:32:42.218Z,42.23
2019-02-17T14:35:10.872Z,42.70
2019-02-17T14:37:39.566Z,43.85
2019-02-17T14:40:13.213Z,41.73
2019-02-17T14:42:41.796Z,41.18
2019-02-17T14:45:12.660Z,42.70
2019-02-17T14:47:41.302Z,42.40
2019-02-17T14:50:10.381Z,42.48
2019-02-17T14:52:39.066Z,42.35
2019-02-17T14:55:12.026Z,43.33
2019-02-17T14:57:40.665Z,42.73
2019-02-17T15:00:17.078Z,45.17
2019-02-17T15:02:45.739Z,40.67
2019-02-17T15:05:14.410Z,42.62
2019-02-17T15:07:43.111Z,42.98
2019-02-17T15:10:13.035Z,39.27
2019-02-17T15:12:41.701Z,38.65
2019-02-17T15:15:15.347Z,41.63
2019-02-17T15:17:44.013Z,41.33
2019-02-17T15:20:18.589Z,41.60
2019-02-17T15:22:47.299Z,39.60
2019-02-17T15:25:15.947Z,42.00
2019-02-17T15:27:44.594Z,40.35
2019-02-17T15:30:15.164Z,41.25
2019-02-17T15:32:43.819Z,38.55
2019-02-17T15:35:12.516Z,41.70
2019-02-17T15:37:41.192Z,42.00
2019-02-17T15:40:14.886Z,41.42
2019-02-17T15:42:44.368Z,42.98
2019-02-17T15:45:14.057Z,40.50
2019-02-17T15:47:42.701Z,44.73
2019-02-17T15:50:13.509Z,48.95
2019-02-17T15:52:42.199Z,46.75
2019-02-17T15:55:12.446Z,52.27
2019-02-17T15:57:41.098Z,51.50
2019-02-17T16:00:15.065Z,50.88
2019-02-17T16:02:43.724Z,57.78
2019-02-17T16:05:12.371Z,57.15
2019-02-17T16:07:41.081Z,58.17
2019-02-17T16:10:16.825Z,57.27
2019-02-17T16:12:45.563Z,58.55
2019-02-17T16:15:23.132Z,60.40
2019-02-17T16:17:51.829Z,60.48
2019-02-17T16:20:20.470Z,60.70
2019-02-17T16:22:49.131Z,61.37
2019-02-17T16:25:17.841Z,59.58
2019-02-17T16:27:46.483Z,61.80
2019-02-17T16:30:22.991Z,61.33
2019-02-17T16:32:51.637Z,63.10
2019-02-17T16:35:20.306Z,61.63
2019-02-17T16:37:49.013Z,61.35
2019-02-17T16:40:18.580Z,63.63
2019-02-17T16:42:47.239Z,64.00
2019-02-17T16:45:16.773Z,63.05
2019-02-17T16:47:45.540Z,60.50
2019-02-17T16:50:20.347Z,61.83
2019-02-17T16:52:49.059Z,58.80
2019-02-17T16:55:17.699Z,58.98
2019-02-17T16:57:46.451Z,62.38
2019-02-17T17:00:19.191Z,61.85
2019-02-17T17:02:48.038Z,62.43
2019-02-17T17:05:16.805Z,62.40
2019-02-17T17:07:45.538Z,60.65
2019-02-17T17:10:14.177Z,62.13
2019-02-17T17:12:42.844Z,61.02
2019-02-17T17:15:11.565Z,62.40
2019-02-17T17:17:40.216Z,63.85
2019-02-17T17:20:11.376Z,62.65
2019-02-17T17:22:40.096Z,61.77
2019-02-17T17:25:10.561Z,62.30
2019-02-17T17:27:41.303Z,61.68
2019-02-17T17:30:16.877Z,63.00
2019-02-17T17:32:45.523Z,60.85
2019-02-17T17:35:14.181Z,60.33
2019-02-17T17:37:42.974Z,61.15
2019-02-17T17:40:18.421Z,62.40
2019-02-17T17:42:47.131Z,61.83
2019-02-17T17:45:18.263Z,62.35
2019-02-17T17:47:46.942Z,61.10
2019-02-17T17:50:16.343Z,61.13
2019-02-17T17:52:45.034Z,60.43
2019-02-17T17:55:13.870Z,60.70
2019-02-17T17:57:42.587Z,61.90
2019-02-17T18:00:20.427Z,62.70
2019-02-17T18:02:49.116Z,64.62
2019-02-17T18:05:17.771Z,60.65
2019-02-17T18:07:46.418Z,63.50
2019-02-17T18:10:16.144Z,62.90
2019-02-17T18:12:44.791Z,61.08
2019-02-17T18:15:15.234Z,61.90
2019-02-17T18:17:53.431Z,60.45
2019-02-17T18:20:14.430Z,60.40
2019-02-17T18:22:43.086Z,59.10
2019-02-17T18:25:13.003Z,59.77
2019-02-17T18:27:41.769Z,60.00
2019-02-17T18:30:16.696Z,60.73
2019-02-17T18:32:45.688Z,60.63
2019-02-17T18:35:19.702Z,59.25
2019-02-17T18:37:44.680Z,60.20
2019-02-17T18:40:15.352Z,62.45
2019-02-17T18:42:44.029Z,60.55
2019-02-17T18:45:16.602Z,62.17
2019-02-17T18:47:45.243Z,58.10
2019-02-17T18:50:15.961Z,61.25
2019-02-17T18:52:44.696Z,59.00
2019-02-17T18:55:14.058Z,59.27
2019-02-17T18:57:49.507Z,59.35
2019-02-17T19:00:24.643Z,58.30
2019-02-17T19:02:53.300Z,56.48
2019-02-17T19:05:31.507Z,54.85
2019-02-17T19:07:53.861Z,56.30
2019-02-17T19:10:22.523Z,51.75
2019-02-17T19:12:51.192Z,52.17
2019-02-17T19:15:21.586Z,52.48
2019-02-17T19:17:50.243Z,52.38
2019-02-17T19:20:36.737Z,50.65
2019-02-17T19:23:05.388Z,51.05
2019-02-17T19:25:34.047Z,49.25
2019-02-17T19:28:03.736Z,48.38
2019-02-17T19:30:32.720Z,47.98
2019-02-17T19:33:01.376Z,47.17
2019-02-17T19:35:30.088Z,45.28
2019-02-17T19:37:58.735Z,45.00
2019-02-17T19:40:27.392Z,43.60
2019-02-17T19:42:56.101Z,44.08
2019-02-17T19:45:24.756Z,43.38
2019-02-17T19:47:53.411Z,44.38
2019-02-17T19:50:22.138Z,44.42
2019-02-17T19:52:50.910Z,43.52
2019-02-17T19:55:19.568Z,40.48
2019-02-17T19:57:48.287Z,41.35
2019-02-17T20:00:18.434Z,40.70
2019-02-17T20:03:03.401Z,39.20
2019-02-17T20:05:35.260Z,40.35
2019-02-17T20:08:03.928Z,40.35
2019-02-17T20:10:32.641Z,39.38
2019-02-17T20:13:01.295Z,41.40
2019-02-17T20:15:31.516Z,39.98
2019-02-17T20:18:00.336Z,38.48
2019-02-17T20:20:28.983Z,39.18
2019-02-17T20:22:57.653Z,39.42
2019-02-17T20:25:26.363Z,39.03
2019-02-17T20:27:55.015Z,39.60
2019-02-17T20:30:23.669Z,40.55
2019-02-17T20:32:52.385Z,40.20
2019-02-17T20:35:21.035Z,41.10
2019-02-17T20:37:49.701Z,38.70
2019-02-17T20:40:19.027Z,41.25
2019-02-17T20:42:47.676Z,40.23
2019-02-17T20:45:16.346Z,40.83
2019-02-17T20:47:45.072Z,41.95
2019-02-17T20:50:16.084Z,40.65
2019-02-17T20:52:44.726Z,42.13
2019-02-17T20:55:14.233Z,41.15
2019-02-17T20:57:42.887Z,41.08
2019-02-17T21:00:13.672Z,41.48
2019-02-17T21:02:42.477Z,43.00
2019-02-17T21:05:11.233Z,40.23
2019-02-17T21:07:39.870Z,41.05
2019-02-17T21:10:15.883Z,42.70
2019-02-17T21:12:44.527Z,43.28
2019-02-17T21:15:15.579Z,44.23
2019-02-17T21:17:44.278Z,42.00
2019-02-17T21:20:13.242Z,44.23
2019-02-17T21:22:41.893Z,44.70
2019-02-17T21:25:11.906Z,42.00
2019-02-17T21:27:40.570Z,42.90
2019-02-17T21:30:11.962Z,42.78
2019-02-17T21:32:40.667Z,42.75
2019-02-17T21:35:11.802Z,40.38
2019-02-17T21:37:40.436Z,44.15
2019-02-17T21:40:11.033Z,40.90
2019-02-17T21:42:39.615Z,40.85
2019-02-17T21:45:13.965Z,42.27
2019-02-17T21:47:42.585Z,39.30
2019-02-17T21:50:12.425Z,38.80
2019-02-17T21:52:41.958Z,38.00
2019-02-17T21:55:14.869Z,39.23
2019-02-17T21:57:43.982Z,37.33
2019-02-17T22:00:19.303Z,39.50
2019-02-17T22:02:47.984Z,37.42
2019-02-17T22:05:16.599Z,39.75
2019-02-17T22:07:45.329Z,38.35
2019-02-17T22:10:17.934Z,38.73
2019-02-17T22:12:46.593Z,38.65
2019-02-17T22:15:17.866Z,39.25
2019-02-17T22:17:46.548Z,38.40
2019-02-17T22:20:15.168Z,39.23
2019-02-17T22:22:43.874Z,38.42
2019-02-17T22:25:14.092Z,39.25
2019-02-17T22:27:42.731Z,37.48
2019-02-17T22:30:13.043Z,38.30
2019-02-17T22:32:41.695Z,38.42
2019-02-17T22:35:10.342Z,39.42
2019-02-17T22:37:39.038Z,38.55
2019-02-17T22:40:13.846Z,37.38
2019-02-17T22:42:42.559Z,37.90
2019-02-17T22:45:12.112Z,37.65
2019-02-17T22:47:40.755Z,37.38
2019-02-17T22:50:13.883Z,37.15
2019-02-17T22:52:42.513Z,39.38
2019-02-17T22:55:12.359Z,37.38
2019-02-17T22:57:41.049Z,39.25
2019-02-17T23:00:30.534Z,38.80
2019-02-17T23:02:59.253Z,37.05
2019-02-17T23:05:27.890Z,39.67
2019-02-17T23:07:56.551Z,37.67
2019-02-17T23:10:25.228Z,38.55
2019-02-17T23:12:53.893Z,37.50
2019-02-17T23:15:22.544Z,38.35
2019-02-17T23:17:51.251Z,37.78
2019-02-17T23:20:19.961Z,35.63
2019-02-17T23:22:48.560Z,35.60
2019-02-17T23:25:17.250Z,37.10
2019-02-17T23:27:46.009Z,35.13
2019-02-17T23:30:14.646Z,36.05
2019-02-17T23:32:43.356Z,36.50
2019-02-17T23:35:12.001Z,37.65
2019-02-17T23:37:40.574Z,37.23
2019-02-17T23:40:13.151Z,38.70
2019-02-17T23:42:41.798Z,37.98
2019-02-17T23:45:12.257Z,36.85
2019-02-17T23:47:40.972Z,37.83
2019-02-17T23:50:11.412Z,36.23
2019-02-17T23:52:40.060Z,38.17
2019-02-17T23:55:10.078Z,38.83
2019-02-17T23:57:38.739Z,38.58
